sensor_id;sensor_type;location;lat;lon;timestamp;pressure;altitude;pressure_sealevel;temperature;humidity
78623;BME280;67943;54.412;9.502;2023-07-20T00:03:42;101058.69;;;13.83;82.57
78623;BME280;67943;54.412;9.502;2023-07-20T00:08:44;101057.97;;;13.78;82.26
78623;BME280;67943;54.412;9.502;2023-07-20T00:13:46;101051.81;;;13.78;82.21
78623;BME280;67943;54.412;9.502;2023-07-20T00:18:48;101047.34;;;13.80;81.49
78623;BME280;67943;54.412;9.502;2023-07-20T00:23:50;101047.34;;;13.80;81.72
78623;BME280;67943;54.412;9.502;2023-07-20T00:28:52;101052.81;;;13.74;82.28
78623;BME280;67943;54.412;9.502;2023-07-20T00:33:53;101053.81;;;13.70;82.59
78623;BME280;67943;54.412;9.502;2023-07-20T00:38:56;101057.78;;;13.55;82.40
78623;BME280;67943;54.412;9.502;2023-07-20T00:43:58;101057.25;;;13.44;82.30
78623;BME280;67943;54.412;9.502;2023-07-20T00:49:00;101062.81;;;13.33;82.13
78623;BME280;67943;54.412;9.502;2023-07-20T00:54:03;101062.16;;;13.27;82.43
78623;BME280;67943;54.412;9.502;2023-07-20T00:59:05;101056.88;;;13.27;83.59
78623;BME280;67943;54.412;9.502;2023-07-20T01:04:07;101057.81;;;13.24;83.49
78623;BME280;67943;54.412;9.502;2023-07-20T01:09:13;101055.22;;;13.23;83.59
78623;BME280;67943;54.412;9.502;2023-07-20T01:14:16;101052.56;;;13.23;83.53
78623;BME280;67943;54.412;9.502;2023-07-20T01:19:18;101058.66;;;13.26;83.51
78623;BME280;67943;54.412;9.502;2023-07-20T01:24:42;101054.28;;;13.25;83.95
78623;BME280;67943;54.412;9.502;2023-07-20T01:30:25;101051.38;;;13.33;83.53
78623;BME280;67943;54.412;9.502;2023-07-20T01:35:36;101056.53;;;13.37;83.39
78623;BME280;67943;54.412;9.502;2023-07-20T01:40:40;101058.22;;;13.40;83.84
78623;BME280;67943;54.412;9.502;2023-07-20T01:45:42;101051.25;;;13.37;84.06
78623;BME280;67943;54.412;9.502;2023-07-20T01:50:45;101055.09;;;13.27;84.76
78623;BME280;67943;54.412;9.502;2023-07-20T01:55:47;101052.63;;;13.21;85.17
78623;BME280;67943;54.412;9.502;2023-07-20T02:00:48;101050.09;;;13.15;85.24
78623;BME280;67943;54.412;9.502;2023-07-20T02:05:51;101046.59;;;13.16;85.80
78623;BME280;67943;54.412;9.502;2023-07-20T02:10:53;101054.28;;;13.25;85.30
78623;BME280;67943;54.412;9.502;2023-07-20T02:15:54;101057.63;;;13.30;84.63
78623;BME280;67943;54.412;9.502;2023-07-20T02:20:57;101045.72;;;13.14;85.16
78623;BME280;67943;54.412;9.502;2023-07-20T02:25:59;101045.22;;;13.00;85.89
78623;BME280;67943;54.412;9.502;2023-07-20T02:31:00;101039.91;;;13.01;85.61
78623;BME280;67943;54.412;9.502;2023-07-20T02:36:03;101051.63;;;12.93;86.17
78623;BME280;67943;54.412;9.502;2023-07-20T02:41:05;101043.69;;;12.93;86.06
78623;BME280;67943;54.412;9.502;2023-07-20T02:46:06;101035.50;;;13.02;86.03
78623;BME280;67943;54.412;9.502;2023-07-20T02:51:09;101043.31;;;13.06;85.75
78623;BME280;67943;54.412;9.502;2023-07-20T02:56:11;101035.34;;;13.08;85.57
78623;BME280;67943;54.412;9.502;2023-07-20T03:01:12;101038.13;;;13.02;85.84
78623;BME280;67943;54.412;9.502;2023-07-20T03:06:17;101033.97;;;12.95;85.88
78623;BME280;67943;54.412;9.502;2023-07-20T03:11:19;101041.13;;;12.90;86.16
78623;BME280;67943;54.412;9.502;2023-07-20T03:16:21;101041.22;;;12.87;86.37
78623;BME280;67943;54.412;9.502;2023-07-20T03:21:24;101053.50;;;12.88;85.78
78623;BME280;67943;54.412;9.502;2023-07-20T03:26:25;101049.13;;;12.87;85.59
78623;BME280;67943;54.412;9.502;2023-07-20T03:31:27;101045.44;;;12.94;84.51
78623;BME280;67943;54.412;9.502;2023-07-20T03:36:30;101053.59;;;12.84;85.03
78623;BME280;67943;54.412;9.502;2023-07-20T03:41:31;101054.53;;;12.82;85.36
78623;BME280;67943;54.412;9.502;2023-07-20T03:46:33;101044.00;;;12.80;84.69
78623;BME280;67943;54.412;9.502;2023-07-20T03:51:36;101047.28;;;12.90;84.22
78623;BME280;67943;54.412;9.502;2023-07-20T03:56:38;101045.47;;;12.92;84.21
78623;BME280;67943;54.412;9.502;2023-07-20T04:01:39;101050.31;;;13.07;83.02
78623;BME280;67943;54.412;9.502;2023-07-20T04:06:43;101054.81;;;13.04;83.03
78623;BME280;67943;54.412;9.502;2023-07-20T04:11:45;101054.53;;;13.16;82.82
78623;BME280;67943;54.412;9.502;2023-07-20T04:16:47;101066.13;;;13.41;82.34
78623;BME280;67943;54.412;9.502;2023-07-20T04:21:49;101059.69;;;13.50;83.05
78623;BME280;67943;54.412;9.502;2023-07-20T04:26:51;101058.53;;;13.59;83.79
78623;BME280;67943;54.412;9.502;2023-07-20T04:31:52;101056.28;;;13.76;83.90
78623;BME280;67943;54.412;9.502;2023-07-20T04:36:55;101052.91;;;13.71;84.76
78623;BME280;67943;54.412;9.502;2023-07-20T04:41:57;101059.66;;;13.81;84.48
78623;BME280;67943;54.412;9.502;2023-07-20T04:46:58;101054.81;;;13.94;84.70
78623;BME280;67943;54.412;9.502;2023-07-20T04:52:01;101066.28;;;13.94;84.49
78623;BME280;67943;54.412;9.502;2023-07-20T04:57:11;101059.06;;;13.99;83.73
78623;BME280;67943;54.412;9.502;2023-07-20T05:02:12;101058.09;;;14.02;83.13
78623;BME280;67943;54.412;9.502;2023-07-20T05:07:15;101064.25;;;14.02;83.15
78623;BME280;67943;54.412;9.502;2023-07-20T05:12:17;101064.94;;;14.09;83.23
78623;BME280;67943;54.412;9.502;2023-07-20T05:17:18;101067.31;;;14.16;82.20
78623;BME280;67943;54.412;9.502;2023-07-20T05:22:21;101072.09;;;14.05;82.04
78623;BME280;67943;54.412;9.502;2023-07-20T05:27:23;101062.94;;;14.15;81.53
78623;BME280;67943;54.412;9.502;2023-07-20T05:32:24;101059.09;;;14.26;81.83
78623;BME280;67943;54.412;9.502;2023-07-20T05:37:27;101059.91;;;14.56;81.70
78623;BME280;67943;54.412;9.502;2023-07-20T05:42:29;101061.16;;;14.70;80.33
78623;BME280;67943;54.412;9.502;2023-07-20T05:47:30;101062.84;;;14.98;80.53
78623;BME280;67943;54.412;9.502;2023-07-20T05:52:33;101060.34;;;15.18;79.32
78623;BME280;67943;54.412;9.502;2023-07-20T05:57:35;101062.34;;;15.35;78.92
78623;BME280;67943;54.412;9.502;2023-07-20T06:02:40;101062.31;;;15.60;76.80
78623;BME280;67943;54.412;9.502;2023-07-20T06:07:43;101064.00;;;15.85;77.47
78623;BME280;67943;54.412;9.502;2023-07-20T06:12:44;101058.75;;;16.28;75.99
78623;BME280;67943;54.412;9.502;2023-07-20T06:17:46;101061.84;;;16.59;74.16
78623;BME280;67943;54.412;9.502;2023-07-20T06:22:49;101057.44;;;16.38;72.91
78623;BME280;67943;54.412;9.502;2023-07-20T06:27:51;101056.09;;;16.28;73.66
78623;BME280;67943;54.412;9.502;2023-07-20T06:32:52;101057.31;;;16.19;73.81
78623;BME280;67943;54.412;9.502;2023-07-20T06:37:55;101057.69;;;16.32;74.67
78623;BME280;67943;54.412;9.502;2023-07-20T06:42:57;101063.78;;;16.55;75.04
78623;BME280;67943;54.412;9.502;2023-07-20T06:47:59;101064.38;;;16.62;73.14
78623;BME280;67943;54.412;9.502;2023-07-20T06:53:02;101051.00;;;16.65;72.90
78623;BME280;67943;54.412;9.502;2023-07-20T06:58:04;101051.81;;;16.67;71.56
78623;BME280;67943;54.412;9.502;2023-07-20T07:03:06;101047.41;;;16.86;71.60
78623;BME280;67943;54.412;9.502;2023-07-20T07:08:08;101052.03;;;17.22;69.21
78623;BME280;67943;54.412;9.502;2023-07-20T07:13:10;101052.06;;;17.41;68.46
78623;BME280;67943;54.412;9.502;2023-07-20T07:18:11;101046.91;;;17.57;65.77
78623;BME280;67943;54.412;9.502;2023-07-20T07:23:14;101045.22;;;17.74;66.53
78623;BME280;67943;54.412;9.502;2023-07-20T07:28:16;101047.13;;;18.08;64.79
78623;BME280;67943;54.412;9.502;2023-07-20T07:33:17;101048.41;;;18.36;62.59
78623;BME280;67943;54.412;9.502;2023-07-20T07:38:20;101054.25;;;18.25;65.94
78623;BME280;67943;54.412;9.502;2023-07-20T07:43:22;101067.25;;;17.58;68.59
78623;BME280;67943;54.412;9.502;2023-07-20T07:48:24;101078.03;;;17.54;68.73
78623;BME280;67943;54.412;9.502;2023-07-20T07:53:27;101071.09;;;17.71;71.33
78623;BME280;67943;54.412;9.502;2023-07-20T07:58:28;101072.66;;;17.56;69.39
78623;BME280;67943;54.412;9.502;2023-07-20T08:03:30;101085.88;;;17.58;72.04
78623;BME280;67943;54.412;9.502;2023-07-20T08:08:32;101078.00;;;17.75;71.39
78623;BME280;67943;54.412;9.502;2023-07-20T08:13:36;101087.22;;;18.41;69.04
78623;BME280;67943;54.412;9.502;2023-07-20T08:18:37;101084.56;;;18.41;66.49
78623;BME280;67943;54.412;9.502;2023-07-20T08:23:40;101080.69;;;18.30;66.30
78623;BME280;67943;54.412;9.502;2023-07-20T08:28:44;101070.59;;;18.36;68.40
78623;BME280;67943;54.412;9.502;2023-07-20T08:33:45;101080.19;;;18.58;64.28
78623;BME280;67943;54.412;9.502;2023-07-20T08:38:48;101081.97;;;18.57;65.92
78623;BME280;67943;54.412;9.502;2023-07-20T08:43:54;101072.63;;;18.67;65.23
78623;BME280;67943;54.412;9.502;2023-07-20T08:48:56;101095.97;;;18.79;66.74
78623;BME280;67943;54.412;9.502;2023-07-20T08:54:00;101104.38;;;18.53;66.82
78623;BME280;67943;54.412;9.502;2023-07-20T08:59:01;101107.06;;;18.53;65.48
78623;BME280;67943;54.412;9.502;2023-07-20T09:04:03;101087.81;;;18.65;64.88
78623;BME280;67943;54.412;9.502;2023-07-20T09:09:06;101082.81;;;18.94;65.08
78623;BME280;67943;54.412;9.502;2023-07-20T09:14:09;101080.53;;;19.36;62.40
78623;BME280;67943;54.412;9.502;2023-07-20T09:19:11;101091.38;;;19.50;59.54
78623;BME280;67943;54.412;9.502;2023-07-20T09:24:14;101094.06;;;19.66;59.43
78623;BME280;67943;54.412;9.502;2023-07-20T09:29:18;101116.69;;;19.92;62.85
78623;BME280;67943;54.412;9.502;2023-07-20T09:34:19;101126.50;;;19.41;64.72
78623;BME280;67943;54.412;9.502;2023-07-20T09:39:23;101119.44;;;19.40;65.14
78623;BME280;67943;54.412;9.502;2023-07-20T09:44:27;101128.56;;;20.02;64.73
78623;BME280;67943;54.412;9.502;2023-07-20T09:49:29;101110.31;;;20.10;61.41
78623;BME280;67943;54.412;9.502;2023-07-20T09:54:31;101113.41;;;20.50;59.51
78623;BME280;67943;54.412;9.502;2023-07-20T09:59:34;101101.91;;;20.94;60.10
78623;BME280;67943;54.412;9.502;2023-07-20T10:04:36;101121.91;;;21.02;56.15
78623;BME280;67943;54.412;9.502;2023-07-20T10:09:39;101119.34;;;20.55;60.43
78623;BME280;67943;54.412;9.502;2023-07-20T10:14:54;101119.59;;;21.40;56.17
78623;BME280;67943;54.412;9.502;2023-07-20T10:20:00;101121.03;;;22.03;53.27
78623;BME280;67943;54.412;9.502;2023-07-20T10:25:07;101122.22;;;22.26;50.02
78623;BME280;67943;54.412;9.502;2023-07-20T10:30:09;101127.38;;;22.29;49.35
78623;BME280;67943;54.412;9.502;2023-07-20T10:35:13;101131.34;;;22.50;50.39
78623;BME280;67943;54.412;9.502;2023-07-20T10:40:27;101130.69;;;22.05;49.26
78623;BME280;67943;54.412;9.502;2023-07-20T10:45:34;101130.50;;;21.66;50.56
78623;BME280;67943;54.412;9.502;2023-07-20T10:50:36;101122.44;;;21.37;50.48
78623;BME280;67943;54.412;9.502;2023-07-20T10:55:39;101119.41;;;21.72;49.52
78623;BME280;67943;54.412;9.502;2023-07-20T11:01:01;101110.19;;;22.72;45.42
78623;BME280;67943;54.412;9.502;2023-07-20T11:11:43;101122.31;;;23.43;43.72
78623;BME280;67943;54.412;9.502;2023-07-20T11:16:46;101117.09;;;23.67;43.31
78623;BME280;67943;54.412;9.502;2023-07-20T11:21:50;101123.44;;;23.66;43.38
78623;BME280;67943;54.412;9.502;2023-07-20T11:26:54;101120.81;;;23.51;44.86
78623;BME280;67943;54.412;9.502;2023-07-20T11:31:56;101134.72;;;22.80;43.91
78623;BME280;67943;54.412;9.502;2023-07-20T11:36:57;101123.88;;;22.68;43.92
78623;BME280;67943;54.412;9.502;2023-07-20T11:42:00;101128.41;;;22.40;45.86
78623;BME280;67943;54.412;9.502;2023-07-20T11:47:03;101128.59;;;22.64;45.77
78623;BME280;67943;54.412;9.502;2023-07-20T11:52:06;101128.97;;;22.72;46.68
78623;BME280;67943;54.412;9.502;2023-07-20T11:57:17;101134.03;;;22.50;48.40
78623;BME280;67943;54.412;9.502;2023-07-20T12:02:18;101139.28;;;23.05;48.32
78623;BME280;67943;54.412;9.502;2023-07-20T12:07:20;101134.38;;;22.58;48.95
78623;BME280;67943;54.412;9.502;2023-07-20T12:12:22;101155.38;;;22.10;49.96
78623;BME280;67943;54.412;9.502;2023-07-20T12:17:26;101161.00;;;21.19;48.05
78623;BME280;67943;54.412;9.502;2023-07-20T12:22:28;101159.38;;;21.16;48.87
78623;BME280;67943;54.412;9.502;2023-07-20T12:27:31;101151.56;;;21.86;48.20
78623;BME280;67943;54.412;9.502;2023-07-20T12:32:33;101152.63;;;22.66;48.50
78623;BME280;67943;54.412;9.502;2023-07-20T12:37:34;101162.56;;;23.17;46.48
78623;BME280;67943;54.412;9.502;2023-07-20T12:42:37;101155.97;;;22.96;47.08
78623;BME280;67943;54.412;9.502;2023-07-20T12:47:39;101155.78;;;22.99;49.45
78623;BME280;67943;54.412;9.502;2023-07-20T12:52:41;101146.66;;;23.14;46.91
78623;BME280;67943;54.412;9.502;2023-07-20T12:57:45;101166.56;;;23.24;48.01
78623;BME280;67943;54.412;9.502;2023-07-20T13:02:47;101145.09;;;23.37;46.03
78623;BME280;67943;54.412;9.502;2023-07-20T13:07:48;101142.88;;;22.92;45.70
78623;BME280;67943;54.412;9.502;2023-07-20T13:12:51;101143.53;;;22.95;46.76
78623;BME280;67943;54.412;9.502;2023-07-20T13:17:53;101140.78;;;23.09;44.79
78623;BME280;67943;54.412;9.502;2023-07-20T13:22:54;101149.25;;;22.76;45.54
78623;BME280;67943;54.412;9.502;2023-07-20T13:27:57;101142.78;;;22.66;47.28
78623;BME280;67943;54.412;9.502;2023-07-20T13:32:58;101151.56;;;22.68;46.52
78623;BME280;67943;54.412;9.502;2023-07-20T13:38:00;101143.03;;;22.49;45.04
78623;BME280;67943;54.412;9.502;2023-07-20T13:43:03;101142.94;;;22.09;45.96
78623;BME280;67943;54.412;9.502;2023-07-20T13:48:05;101152.66;;;21.96;47.46
78623;BME280;67943;54.412;9.502;2023-07-20T13:53:06;101146.94;;;21.74;50.63
78623;BME280;67943;54.412;9.502;2023-07-20T13:58:09;101159.75;;;22.26;50.69
78623;BME280;67943;54.412;9.502;2023-07-20T14:03:11;101161.44;;;22.68;50.28
78623;BME280;67943;54.412;9.502;2023-07-20T14:08:12;101166.09;;;23.05;49.88
78623;BME280;67943;54.412;9.502;2023-07-20T14:13:15;101166.63;;;22.98;49.76
78623;BME280;67943;54.412;9.502;2023-07-20T14:18:17;101165.03;;;22.54;47.69
78623;BME280;67943;54.412;9.502;2023-07-20T14:23:18;101165.34;;;22.76;46.42
78623;BME280;67943;54.412;9.502;2023-07-20T14:28:21;101157.13;;;22.38;48.05
78623;BME280;67943;54.412;9.502;2023-07-20T14:33:23;101167.88;;;22.24;46.95
78623;BME280;67943;54.412;9.502;2023-07-20T14:38:24;101186.72;;;21.66;47.79
78623;BME280;67943;54.412;9.502;2023-07-20T14:43:27;101183.91;;;21.09;51.58
78623;BME280;67943;54.412;9.502;2023-07-20T14:48:29;101180.31;;;20.64;52.49
78623;BME280;67943;54.412;9.502;2023-07-20T14:53:31;101177.72;;;20.78;53.29
78623;BME280;67943;54.412;9.502;2023-07-20T14:58:33;101165.66;;;21.31;53.23
78623;BME280;67943;54.412;9.502;2023-07-20T15:03:35;101177.59;;;21.10;54.07
78623;BME280;67943;54.412;9.502;2023-07-20T15:08:37;101170.00;;;21.18;54.25
78623;BME280;67943;54.412;9.502;2023-07-20T15:13:39;101152.22;;;21.17;50.94
78623;BME280;67943;54.412;9.502;2023-07-20T15:18:43;101153.59;;;21.24;49.51
78623;BME280;67943;54.412;9.502;2023-07-20T15:23:44;101159.81;;;21.25;51.83
78623;BME280;67943;54.412;9.502;2023-07-20T15:28:47;101162.81;;;21.04;50.39
78623;BME280;67943;54.412;9.502;2023-07-20T15:33:49;101156.19;;;20.96;51.38
78623;BME280;67943;54.412;9.502;2023-07-20T15:38:52;101159.66;;;20.82;51.75
78623;BME280;67943;54.412;9.502;2023-07-20T15:43:55;101167.28;;;21.04;49.83
78623;BME280;67943;54.412;9.502;2023-07-20T15:48:57;101174.94;;;21.10;50.45
78623;BME280;67943;54.412;9.502;2023-07-20T15:53:58;101170.91;;;21.03;50.37
78623;BME280;67943;54.412;9.502;2023-07-20T15:59:01;101172.66;;;21.04;50.71
78623;BME280;67943;54.412;9.502;2023-07-20T16:04:03;101159.56;;;20.83;51.69
78623;BME280;67943;54.412;9.502;2023-07-20T16:09:04;101170.31;;;20.68;51.61
78623;BME280;67943;54.412;9.502;2023-07-20T16:14:07;101156.31;;;20.63;52.57
78623;BME280;67943;54.412;9.502;2023-07-20T16:19:09;101156.94;;;20.52;53.79
78623;BME280;67943;54.412;9.502;2023-07-20T16:24:10;101147.09;;;20.52;53.14
78623;BME280;67943;54.412;9.502;2023-07-20T16:29:13;101144.16;;;20.57;52.11
78623;BME280;67943;54.412;9.502;2023-07-20T16:34:15;101146.88;;;20.41;53.21
78623;BME280;67943;54.412;9.502;2023-07-20T16:39:17;101147.66;;;20.43;52.39
78623;BME280;67943;54.412;9.502;2023-07-20T16:44:20;101144.09;;;20.11;52.27
78623;BME280;67943;54.412;9.502;2023-07-20T16:49:21;101149.22;;;19.99;53.21
78623;BME280;67943;54.412;9.502;2023-07-20T16:54:23;101142.84;;;20.01;54.18
78623;BME280;67943;54.412;9.502;2023-07-20T16:59:25;101143.22;;;20.27;54.31
78623;BME280;67943;54.412;9.502;2023-07-20T17:04:27;101136.69;;;20.16;52.09
78623;BME280;67943;54.412;9.502;2023-07-20T17:09:29;101143.22;;;20.11;51.49
78623;BME280;67943;54.412;9.502;2023-07-20T17:14:33;101138.47;;;20.00;51.60
78623;BME280;67943;54.412;9.502;2023-07-20T17:19:34;101143.19;;;19.95;53.05
78623;BME280;67943;54.412;9.502;2023-07-20T17:24:36;101126.97;;;19.67;54.00
78623;BME280;67943;54.412;9.502;2023-07-20T17:29:39;101129.97;;;19.61;53.04
78623;BME280;67943;54.412;9.502;2023-07-20T17:34:40;101132.16;;;19.35;53.56
78623;BME280;67943;54.412;9.502;2023-07-20T17:39:42;101129.53;;;19.18;54.56
78623;BME280;67943;54.412;9.502;2023-07-20T17:44:45;101130.16;;;19.06;55.28
78623;BME280;67943;54.412;9.502;2023-07-20T17:49:46;101137.00;;;18.94;56.12
78623;BME280;67943;54.412;9.502;2023-07-20T17:54:48;101137.38;;;18.69;57.68
78623;BME280;67943;54.412;9.502;2023-07-20T17:59:51;101129.69;;;18.63;58.60
78623;BME280;67943;54.412;9.502;2023-07-20T18:04:53;101129.09;;;18.56;58.93
78623;BME280;67943;54.412;9.502;2023-07-20T18:09:55;101129.94;;;18.57;59.32
78623;BME280;67943;54.412;9.502;2023-07-20T18:14:58;101132.63;;;18.57;59.81
78623;BME280;67943;54.412;9.502;2023-07-20T18:19:59;101130.16;;;18.52;60.49
78623;BME280;67943;54.412;9.502;2023-07-20T18:25:01;101123.09;;;18.34;58.94
78623;BME280;67943;54.412;9.502;2023-07-20T18:30:05;101114.81;;;18.21;58.09
78623;BME280;67943;54.412;9.502;2023-07-20T18:35:07;101113.25;;;18.17;57.18
78623;BME280;67943;54.412;9.502;2023-07-20T18:40:10;101122.41;;;18.12;56.89
78623;BME280;67943;54.412;9.502;2023-07-20T18:45:12;101124.84;;;18.16;57.04
78623;BME280;67943;54.412;9.502;2023-07-20T18:50:16;101122.75;;;18.04;57.31
78623;BME280;67943;54.412;9.502;2023-07-20T18:55:17;101124.25;;;17.91;57.85
78623;BME280;67943;54.412;9.502;2023-07-20T19:00:20;101120.31;;;17.81;57.90
78623;BME280;67943;54.412;9.502;2023-07-20T19:05:22;101118.38;;;17.64;58.57
78623;BME280;67943;54.412;9.502;2023-07-20T19:10:24;101116.22;;;17.53;59.30
78623;BME280;67943;54.412;9.502;2023-07-20T19:15:28;101115.56;;;17.48;59.55
78623;BME280;67943;54.412;9.502;2023-07-20T19:20:30;101130.50;;;17.32;60.26
78623;BME280;67943;54.412;9.502;2023-07-20T19:25:31;101131.09;;;17.18;61.04
78623;BME280;67943;54.412;9.502;2023-07-20T19:30:34;101131.03;;;17.00;61.86
78623;BME280;67943;54.412;9.502;2023-07-20T19:35:35;101136.97;;;16.84;62.54
78623;BME280;67943;54.412;9.502;2023-07-20T19:40:37;101134.06;;;16.70;63.24
78623;BME280;67943;54.412;9.502;2023-07-20T19:45:41;101137.09;;;16.60;63.46
78623;BME280;67943;54.412;9.502;2023-07-20T19:50:43;101140.19;;;16.49;63.95
78623;BME280;67943;54.412;9.502;2023-07-20T19:55:47;101153.13;;;16.36;64.61
78623;BME280;67943;54.412;9.502;2023-07-20T20:00:49;101156.38;;;16.21;65.42
78623;BME280;67943;54.412;9.502;2023-07-20T20:05:52;101151.38;;;16.13;65.60
78623;BME280;67943;54.412;9.502;2023-07-20T20:10:53;101157.09;;;16.03;66.20
78623;BME280;67943;54.412;9.502;2023-07-20T20:15:56;101148.53;;;15.95;66.87
78623;BME280;67943;54.412;9.502;2023-07-20T20:20:58;101148.16;;;15.82;67.58
78623;BME280;67943;54.412;9.502;2023-07-20T20:26:00;101136.03;;;15.75;67.81
78623;BME280;67943;54.412;9.502;2023-07-20T20:31:03;101144.81;;;15.77;68.18
78623;BME280;67943;54.412;9.502;2023-07-20T20:36:06;101148.66;;;15.68;68.39
78623;BME280;67943;54.412;9.502;2023-07-20T20:41:08;101148.03;;;15.62;68.94
78623;BME280;67943;54.412;9.502;2023-07-20T20:46:11;101155.16;;;15.60;69.39
78623;BME280;67943;54.412;9.502;2023-07-20T20:51:13;101156.53;;;15.46;69.97
78623;BME280;67943;54.412;9.502;2023-07-20T20:56:14;101155.09;;;15.36;70.71
78623;BME280;67943;54.412;9.502;2023-07-20T21:01:17;101151.06;;;15.26;70.68
78623;BME280;67943;54.412;9.502;2023-07-20T21:06:19;101148.63;;;15.20;71.28
78623;BME280;67943;54.412;9.502;2023-07-20T21:11:20;101144.91;;;15.26;70.99
78623;BME280;67943;54.412;9.502;2023-07-20T21:16:23;101137.91;;;15.23;70.72
78623;BME280;67943;54.412;9.502;2023-07-20T21:21:25;101137.38;;;15.13;71.54
78623;BME280;67943;54.412;9.502;2023-07-20T21:26:27;101137.25;;;15.16;71.38
78623;BME280;67943;54.412;9.502;2023-07-20T21:31:30;101145.38;;;15.12;71.26
78623;BME280;67943;54.412;9.502;2023-07-20T21:36:31;101130.59;;;15.05;71.81
78623;BME280;67943;54.412;9.502;2023-07-20T21:41:32;101135.22;;;15.00;71.86
78623;BME280;67943;54.412;9.502;2023-07-20T21:46:35;101130.97;;;14.94;71.66
78623;BME280;67943;54.412;9.502;2023-07-20T21:51:37;101137.56;;;14.82;72.30
78623;BME280;67943;54.412;9.502;2023-07-20T21:56:38;101145.59;;;14.79;72.42
78623;BME280;67943;54.412;9.502;2023-07-20T22:01:42;101150.19;;;14.74;72.82
78623;BME280;67943;54.412;9.502;2023-07-20T22:06:43;101142.94;;;14.79;72.61
78623;BME280;67943;54.412;9.502;2023-07-20T22:11:46;101145.41;;;14.85;72.38
78623;BME280;67943;54.412;9.502;2023-07-20T22:16:49;101132.16;;;14.85;72.30
78623;BME280;67943;54.412;9.502;2023-07-20T22:21:50;101126.75;;;14.89;72.12
78623;BME280;67943;54.412;9.502;2023-07-20T22:26:53;101126.09;;;14.82;72.40
78623;BME280;67943;54.412;9.502;2023-07-20T22:31:56;101132.78;;;14.67;72.92
78623;BME280;67943;54.412;9.502;2023-07-20T22:36:58;101130.56;;;14.53;73.51
78623;BME280;67943;54.412;9.502;2023-07-20T22:42:00;101120.28;;;14.44;73.95
78623;BME280;67943;54.412;9.502;2023-07-20T22:47:04;101116.94;;;14.38;74.59
78623;BME280;67943;54.412;9.502;2023-07-20T22:52:07;101123.94;;;14.40;74.72
78623;BME280;67943;54.412;9.502;2023-07-20T22:57:08;101135.19;;;14.47;75.44
78623;BME280;67943;54.412;9.502;2023-07-20T23:02:11;101123.63;;;14.49;76.19
78623;BME280;67943;54.412;9.502;2023-07-20T23:07:13;101126.34;;;14.48;78.09
78623;BME280;67943;54.412;9.502;2023-07-20T23:12:14;101124.81;;;14.41;79.45
78623;BME280;67943;54.412;9.502;2023-07-20T23:17:17;101119.63;;;14.36;80.62
78623;BME280;67943;54.412;9.502;2023-07-20T23:22:19;101105.53;;;14.36;81.44
78623;BME280;67943;54.412;9.502;2023-07-20T23:27:21;101111.84;;;14.32;81.91
78623;BME280;67943;54.412;9.502;2023-07-20T23:32:24;101099.06;;;14.16;82.12
78623;BME280;67943;54.412;9.502;2023-07-20T23:37:25;101100.13;;;14.12;82.58
78623;BME280;67943;54.412;9.502;2023-07-20T23:42:27;101095.31;;;13.96;82.75
78623;BME280;67943;54.412;9.502;2023-07-20T23:47:30;101084.94;;;13.90;82.60
78623;BME280;67943;54.412;9.502;2023-07-20T23:52:32;101076.56;;;13.75;83.55
78623;BME280;67943;54.412;9.502;2023-07-20T23:57:35;101083.06;;;13.64;83.41
